sensor_id;sensor_type;location;lat;lon;timestamp;pressure;altitude;pressure_sealevel;temperature;humidity
45763;BME280;37512;52.408;13.356;2023-02-16T00:01:30;101895.44;;;1.34;100.00
45763;BME280;37512;52.408;13.356;2023-02-16T00:05:33;101891.03;;;1.02;100.00
45763;BME280;37512;52.408;13.356;2023-02-16T00:09:35;101889.97;;;1.03;100.00
45763;BME280;37512;52.408;13.356;2023-02-16T00:13:37;101901.72;;;1.03;100.00
45763;BME280;37512;52.408;13.356;2023-02-16T00:17:44;101892.44;;;1.15;100.00
45763;BME280;37512;52.408;13.356;2023-02-16T00:21:48;101889.91;;;0.77;100.00
45763;BME280;37512;52.408;13.356;2023-02-16T00:25:49;101883.13;;;1.11;100.00
45763;BME280;37512;52.408;13.356;2023-02-16T00:29:51;101884.47;;;0.82;100.00
45763;BME280;37512;52.408;13.356;2023-02-16T00:33:52;101895.16;;;0.89;100.00
45763;BME280;37512;52.408;13.356;2023-02-16T00:37:54;101890.78;;;1.24;100.00
45763;BME280;37512;52.408;13.356;2023-02-16T00:42:17;101884.50;;;1.29;100.00
45763;BME280;37512;52.408;13.356;2023-02-16T00:46:20;101889.13;;;1.02;100.00
45763;BME280;37512;52.408;13.356;2023-02-16T00:50:28;101889.94;;;0.93;100.00
45763;BME280;37512;52.408;13.356;2023-02-16T00:54:30;101897.31;;;1.02;100.00
45763;BME280;37512;52.408;13.356;2023-02-16T00:58:32;101888.56;;;0.90;100.00
45763;BME280;37512;52.408;13.356;2023-02-16T01:02:35;101891.56;;;0.89;100.00
45763;BME280;37512;52.408;13.356;2023-02-16T01:06:37;101882.31;;;1.10;100.00
45763;BME280;37512;52.408;13.356;2023-02-16T01:10:58;101880.69;;;1.14;100.00
45763;BME280;37512;52.408;13.356;2023-02-16T01:15:05;101878.97;;;0.67;100.00
45763;BME280;37512;52.408;13.356;2023-02-16T01:19:11;101874.38;;;1.03;100.00
45763;BME280;37512;52.408;13.356;2023-02-16T01:23:13;101869.47;;;1.26;100.00
45763;BME280;37512;52.408;13.356;2023-02-16T01:27:14;101866.44;;;1.43;100.00
45763;BME280;37512;52.408;13.356;2023-02-16T01:31:16;101878.97;;;0.77;100.00
45763;BME280;37512;52.408;13.356;2023-02-16T01:35:20;101881.75;;;0.93;100.00
45763;BME280;37512;52.408;13.356;2023-02-16T01:39:22;101870.00;;;0.87;100.00
45763;BME280;37512;52.408;13.356;2023-02-16T01:43:28;101872.13;;;0.75;100.00
45763;BME280;37512;52.408;13.356;2023-02-16T01:47:39;101872.69;;;0.82;100.00
45763;BME280;37512;52.408;13.356;2023-02-16T01:52:02;101868.06;;;0.93;100.00
45763;BME280;37512;52.408;13.356;2023-02-16T02:04:52;101867.78;;;0.74;100.00
45763;BME280;37512;52.408;13.356;2023-02-16T02:09:22;101867.78;;;0.69;100.00
45763;BME280;37512;52.408;13.356;2023-02-16T02:13:31;101854.66;;;0.76;100.00
45763;BME280;37512;52.408;13.356;2023-02-16T02:17:34;101845.41;;;0.87;100.00
45763;BME280;37512;52.408;13.356;2023-02-16T02:21:54;101838.78;;;0.73;100.00
45763;BME280;37512;52.408;13.356;2023-02-16T02:44:07;101826.25;;;0.72;100.00
45763;BME280;37512;52.408;13.356;2023-02-16T02:48:09;101832.81;;;0.86;100.00
45763;BME280;37512;52.408;13.356;2023-02-16T02:52:11;101832.28;;;1.10;100.00
45763;BME280;37512;52.408;13.356;2023-02-16T02:56:15;101828.97;;;0.77;100.00
45763;BME280;37512;52.408;13.356;2023-02-16T03:00:38;101818.31;;;0.80;100.00
45763;BME280;37512;52.408;13.356;2023-02-16T03:04:43;101819.97;;;0.71;100.00
45763;BME280;37512;52.408;13.356;2023-02-16T03:08:49;101817.78;;;0.78;100.00
45763;BME280;37512;52.408;13.356;2023-02-16T03:12:52;101813.13;;;0.84;100.00
45763;BME280;37512;52.408;13.356;2023-02-16T03:16:56;101816.97;;;1.03;100.00
45763;BME280;37512;52.408;13.356;2023-02-16T03:21:17;101813.69;;;0.76;100.00
45763;BME280;37512;52.408;13.356;2023-02-16T03:25:37;101815.03;;;0.78;100.00
45763;BME280;37512;52.408;13.356;2023-02-16T03:29:59;101813.13;;;0.74;100.00
45763;BME280;37512;52.408;13.356;2023-02-16T03:34:01;101813.13;;;0.74;100.00
45763;BME280;37512;52.408;13.356;2023-02-16T03:38:04;101824.00;;;0.43;100.00
45763;BME280;37512;52.408;13.356;2023-02-16T03:42:06;101819.81;;;0.15;100.00
45763;BME280;37512;52.408;13.356;2023-02-16T03:46:08;101830.56;;;0.47;100.00
45763;BME280;37512;52.408;13.356;2023-02-16T03:50:09;101825.59;;;0.18;100.00
45763;BME280;37512;52.408;13.356;2023-02-16T03:54:11;101822.31;;;0.32;100.00
45763;BME280;37512;52.408;13.356;2023-02-16T03:58:16;101821.13;;;-0.03;100.00
45763;BME280;37512;52.408;13.356;2023-02-16T04:02:18;101820.38;;;0.22;100.00
45763;BME280;37512;52.408;13.356;2023-02-16T04:06:19;101829.84;;;-0.01;100.00
45763;BME280;37512;52.408;13.356;2023-02-16T04:10:21;101816.59;;;0.33;100.00
45763;BME280;37512;52.408;13.356;2023-02-16T04:14:23;101817.56;;;-0.04;100.00
45763;BME280;37512;52.408;13.356;2023-02-16T04:18:24;101821.66;;;-0.06;100.00
45763;BME280;37512;52.408;13.356;2023-02-16T04:22:26;101820.63;;;0.10;100.00
45763;BME280;37512;52.408;13.356;2023-02-16T04:26:28;101814.91;;;0.17;100.00
45763;BME280;37512;52.408;13.356;2023-02-16T04:30:29;101814.06;;;0.06;100.00
45763;BME280;37512;52.408;13.356;2023-02-16T04:34:31;101818.38;;;-0.08;100.00
45763;BME280;37512;52.408;13.356;2023-02-16T04:38:33;101818.69;;;0.06;100.00
45763;BME280;37512;52.408;13.356;2023-02-16T04:42:34;101817.03;;;-0.01;100.00
45763;BME280;37512;52.408;13.356;2023-02-16T04:46:36;101820.06;;;0.03;100.00
45763;BME280;37512;52.408;13.356;2023-02-16T04:50:37;101820.56;;;-0.05;100.00
45763;BME280;37512;52.408;13.356;2023-02-16T04:54:39;101808.59;;;0.06;100.00
45763;BME280;37512;52.408;13.356;2023-02-16T04:58:41;101818.63;;;-0.10;100.00
45763;BME280;37512;52.408;13.356;2023-02-16T05:02:42;101798.47;;;-0.04;100.00
45763;BME280;37512;52.408;13.356;2023-02-16T05:06:44;101809.88;;;-0.12;100.00
45763;BME280;37512;52.408;13.356;2023-02-16T05:10:45;101811.88;;;0.08;100.00
45763;BME280;37512;52.408;13.356;2023-02-16T05:15:07;101820.25;;;-0.14;100.00
45763;BME280;37512;52.408;13.356;2023-02-16T05:19:09;101826.53;;;-0.13;100.00
45763;BME280;37512;52.408;13.356;2023-02-16T05:23:11;101826.00;;;-0.05;100.00
45763;BME280;37512;52.408;13.356;2023-02-16T05:27:18;101827.56;;;-0.25;100.00
45763;BME280;37512;52.408;13.356;2023-02-16T05:31:21;101842.44;;;0.00;100.00
45763;BME280;37512;52.408;13.356;2023-02-16T05:35:23;101828.47;;;-0.09;100.00
45763;BME280;37512;52.408;13.356;2023-02-16T05:39:24;101824.31;;;-0.22;100.00
45763;BME280;37512;52.408;13.356;2023-02-16T05:43:26;101821.34;;;-0.15;100.00
45763;BME280;37512;52.408;13.356;2023-02-16T05:47:27;101818.97;;;-0.49;100.00
45763;BME280;37512;52.408;13.356;2023-02-16T05:51:29;101825.06;;;-0.79;100.00
45763;BME280;37512;52.408;13.356;2023-02-16T05:55:31;101823.06;;;-0.46;100.00
45763;BME280;37512;52.408;13.356;2023-02-16T05:59:32;101837.28;;;-0.44;100.00
45763;BME280;37512;52.408;13.356;2023-02-16T06:03:34;101844.16;;;-0.36;100.00
45763;BME280;37512;52.408;13.356;2023-02-16T06:07:38;101837.25;;;-0.49;100.00
45763;BME280;37512;52.408;13.356;2023-02-16T06:11:40;101848.97;;;-0.49;100.00
45763;BME280;37512;52.408;13.356;2023-02-16T06:15:42;101841.25;;;-0.62;100.00
45763;BME280;37512;52.408;13.356;2023-02-16T06:19:44;101839.19;;;-0.45;100.00
45763;BME280;37512;52.408;13.356;2023-02-16T06:23:45;101839.72;;;-0.48;100.00
45763;BME280;37512;52.408;13.356;2023-02-16T06:27:47;101838.38;;;-0.45;100.00
45763;BME280;37512;52.408;13.356;2023-02-16T06:31:50;101839.09;;;-0.55;100.00
45763;BME280;37512;52.408;13.356;2023-02-16T06:35:52;101839.94;;;-0.54;100.00
45763;BME280;37512;52.408;13.356;2023-02-16T06:39:53;101850.50;;;-0.68;100.00
45763;BME280;37512;52.408;13.356;2023-02-16T06:43:55;101841.88;;;-0.50;100.00
45763;BME280;37512;52.408;13.356;2023-02-16T06:47:57;101845.88;;;-0.63;100.00
45763;BME280;37512;52.408;13.356;2023-02-16T06:51:58;101851.94;;;-0.50;100.00
45763;BME280;37512;52.408;13.356;2023-02-16T06:56:00;101847.03;;;-0.53;100.00
45763;BME280;37512;52.408;13.356;2023-02-16T07:00:03;101851.28;;;-0.25;100.00
45763;BME280;37512;52.408;13.356;2023-02-16T07:04:05;101853.72;;;-0.34;100.00
45763;BME280;37512;52.408;13.356;2023-02-16T07:08:06;101847.72;;;-0.31;100.00
45763;BME280;37512;52.408;13.356;2023-02-16T07:12:08;101857.94;;;-0.11;100.00
45763;BME280;37512;52.408;13.356;2023-02-16T07:16:10;101851.75;;;0.09;100.00
45763;BME280;37512;52.408;13.356;2023-02-16T07:20:11;101848.72;;;0.01;100.00
45763;BME280;37512;52.408;13.356;2023-02-16T07:24:13;101844.44;;;0.25;100.00
45763;BME280;37512;52.408;13.356;2023-02-16T07:28:14;101850.91;;;0.09;100.00
45763;BME280;37512;52.408;13.356;2023-02-16T07:32:16;101845.66;;;-0.08;100.00
45763;BME280;37512;52.408;13.356;2023-02-16T07:36:18;101841.97;;;0.24;100.00
45763;BME280;37512;52.408;13.356;2023-02-16T07:40:19;101841.19;;;0.38;100.00
45763;BME280;37512;52.408;13.356;2023-02-16T07:44:21;101843.66;;;0.35;100.00
45763;BME280;37512;52.408;13.356;2023-02-16T07:48:22;101843.97;;;0.49;100.00
45763;BME280;37512;52.408;13.356;2023-02-16T07:52:24;101839.88;;;0.61;100.00
45763;BME280;37512;52.408;13.356;2023-02-16T07:56:32;101839.91;;;0.67;100.00
45763;BME280;37512;52.408;13.356;2023-02-16T08:00:34;101844.81;;;0.75;100.00
45763;BME280;37512;52.408;13.356;2023-02-16T08:04:36;101836.91;;;0.99;100.00
45763;BME280;37512;52.408;13.356;2023-02-16T08:08:37;101848.13;;;1.28;100.00
45763;BME280;37512;52.408;13.356;2023-02-16T08:12:39;101844.00;;;1.41;100.00
45763;BME280;37512;52.408;13.356;2023-02-16T08:16:41;101830.59;;;1.50;100.00
45763;BME280;37512;52.408;13.356;2023-02-16T08:20:42;101845.09;;;1.45;100.00
45763;BME280;37512;52.408;13.356;2023-02-16T08:25:03;101856.28;;;1.69;100.00
45763;BME280;37512;52.408;13.356;2023-02-16T08:29:08;101851.34;;;1.76;100.00
45763;BME280;37512;52.408;13.356;2023-02-16T08:33:10;101854.56;;;1.88;100.00
45763;BME280;37512;52.408;13.356;2023-02-16T08:37:12;101855.66;;;2.53;100.00
45763;BME280;37512;52.408;13.356;2023-02-16T08:41:13;101843.16;;;2.81;100.00
45763;BME280;37512;52.408;13.356;2023-02-16T08:45:16;101848.84;;;2.89;100.00
45763;BME280;37512;52.408;13.356;2023-02-16T08:49:20;101840.41;;;3.44;100.00
45763;BME280;37512;52.408;13.356;2023-02-16T08:53:22;101836.47;;;2.97;100.00
45763;BME280;37512;52.408;13.356;2023-02-16T08:57:24;101841.56;;;3.09;100.00
45763;BME280;37512;52.408;13.356;2023-02-16T09:01:27;101834.06;;;3.49;100.00
45763;BME280;37512;52.408;13.356;2023-02-16T09:05:28;101829.09;;;3.51;100.00
45763;BME280;37512;52.408;13.356;2023-02-16T09:09:30;101818.09;;;4.04;100.00
45763;BME280;37512;52.408;13.356;2023-02-16T09:13:35;101828.25;;;4.04;100.00
45763;BME280;37512;52.408;13.356;2023-02-16T09:17:38;101819.63;;;4.72;100.00
45763;BME280;37512;52.408;13.356;2023-02-16T09:21:40;101816.56;;;4.93;100.00
45763;BME280;37512;52.408;13.356;2023-02-16T09:25:41;101817.66;;;4.92;100.00
45763;BME280;37512;52.408;13.356;2023-02-16T09:29:43;101820.19;;;5.68;100.00
45763;BME280;37512;52.408;13.356;2023-02-16T09:33:45;101827.63;;;5.67;100.00
45763;BME280;37512;52.408;13.356;2023-02-16T09:37:47;101818.34;;;5.91;100.00
45763;BME280;37512;52.408;13.356;2023-02-16T09:45:57;101820.91;;;5.27;100.00
45763;BME280;37512;52.408;13.356;2023-02-16T09:50:12;101828.88;;;5.89;100.00
45763;BME280;37512;52.408;13.356;2023-02-16T09:54:25;101816.13;;;6.57;100.00
45763;BME280;37512;52.408;13.356;2023-02-16T09:58:40;101818.75;;;6.76;100.00
45763;BME280;37512;52.408;13.356;2023-02-16T10:02:51;101814.03;;;6.76;100.00
45763;BME280;37512;52.408;13.356;2023-02-16T10:15:40;101819.41;;;7.49;95.44
45763;BME280;37512;52.408;13.356;2023-02-16T10:19:48;101815.81;;;7.88;92.45
45763;BME280;37512;52.408;13.356;2023-02-16T10:24:02;101815.94;;;8.32;90.53
45763;BME280;37512;52.408;13.356;2023-02-16T10:28:27;101826.59;;;7.99;88.10
45763;BME280;37512;52.408;13.356;2023-02-16T10:32:36;101823.72;;;8.12;89.82
45763;BME280;37512;52.408;13.356;2023-02-16T10:37:16;101826.72;;;7.53;93.24
45763;BME280;37512;52.408;13.356;2023-02-16T10:41:47;101813.16;;;8.14;94.93
45763;BME280;37512;52.408;13.356;2023-02-16T10:45:52;101809.22;;;8.15;90.63
45763;BME280;37512;52.408;13.356;2023-02-16T10:49:54;101807.78;;;8.18;87.80
45763;BME280;37512;52.408;13.356;2023-02-16T10:54:07;101797.41;;;8.41;86.24
45763;BME280;37512;52.408;13.356;2023-02-16T10:58:18;101792.72;;;8.59;85.98
45763;BME280;37512;52.408;13.356;2023-02-16T11:02:23;101796.78;;;8.53;86.04
45763;BME280;37512;52.408;13.356;2023-02-16T11:06:26;101792.38;;;8.95;85.54
45763;BME280;37512;52.408;13.356;2023-02-16T11:10:51;101771.75;;;9.40;80.45
45763;BME280;37512;52.408;13.356;2023-02-16T11:15:22;101774.88;;;9.30;82.54
45763;BME280;37512;52.408;13.356;2023-02-16T11:19:23;101776.19;;;10.00;81.63
45763;BME280;37512;52.408;13.356;2023-02-16T11:23:33;101780.06;;;9.78;71.03
45763;BME280;37512;52.408;13.356;2023-02-16T11:27:34;101778.84;;;9.58;71.32
45763;BME280;37512;52.408;13.356;2023-02-16T11:31:37;101785.16;;;10.27;69.03
45763;BME280;37512;52.408;13.356;2023-02-16T11:35:42;101770.31;;;10.02;71.52
45763;BME280;37512;52.408;13.356;2023-02-16T11:39:51;101757.69;;;10.13;69.65
45763;BME280;37512;52.408;13.356;2023-02-16T11:43:54;101767.81;;;10.09;65.97
45763;BME280;37512;52.408;13.356;2023-02-16T11:48:00;101757.88;;;10.38;65.56
45763;BME280;37512;52.408;13.356;2023-02-16T11:56:26;101755.78;;;10.26;66.20
45763;BME280;37512;52.408;13.356;2023-02-16T12:00:28;101751.91;;;10.48;67.42
45763;BME280;37512;52.408;13.356;2023-02-16T12:13:25;101733.25;;;11.15;62.82
45763;BME280;37512;52.408;13.356;2023-02-16T12:26:03;101741.41;;;11.20;61.51
45763;BME280;37512;52.408;13.356;2023-02-16T12:34:36;101725.84;;;12.30;57.57
45763;BME280;37512;52.408;13.356;2023-02-16T12:38:54;101721.25;;;11.97;55.13
45763;BME280;37512;52.408;13.356;2023-02-16T12:47:37;101709.75;;;12.23;59.19
45763;BME280;37512;52.408;13.356;2023-02-16T12:51:46;101705.75;;;12.65;56.11
45763;BME280;37512;52.408;13.356;2023-02-16T12:55:58;101712.13;;;12.09;54.85
45763;BME280;37512;52.408;13.356;2023-02-16T13:00:13;101721.81;;;11.04;58.18
45763;BME280;37512;52.408;13.356;2023-02-16T13:04:41;101711.72;;;11.00;61.46
45763;BME280;37512;52.408;13.356;2023-02-16T13:09:02;101708.75;;;11.29;60.64
45763;BME280;37512;52.408;13.356;2023-02-16T13:13:16;101696.94;;;11.20;59.61
45763;BME280;37512;52.408;13.356;2023-02-16T13:17:29;101697.88;;;11.24;57.14
45763;BME280;37512;52.408;13.356;2023-02-16T13:26:39;101689.28;;;11.79;57.02
45763;BME280;37512;52.408;13.356;2023-02-16T13:31:04;101681.16;;;12.67;55.61
45763;BME280;37512;52.408;13.356;2023-02-16T13:39:40;101684.47;;;12.72;52.74
45763;BME280;37512;52.408;13.356;2023-02-16T13:43:53;101674.28;;;13.08;52.19
45763;BME280;37512;52.408;13.356;2023-02-16T13:47:56;101670.34;;;12.65;53.01
45763;BME280;37512;52.408;13.356;2023-02-16T13:51:59;101674.59;;;12.59;54.18
45763;BME280;37512;52.408;13.356;2023-02-16T13:56:20;101678.31;;;12.51;55.15
45763;BME280;37512;52.408;13.356;2023-02-16T14:00:37;101676.09;;;13.01;53.95
45763;BME280;37512;52.408;13.356;2023-02-16T14:08:41;101671.91;;;11.94;57.41
45763;BME280;37512;52.408;13.356;2023-02-16T14:12:44;101672.97;;;12.30;56.55
45763;BME280;37512;52.408;13.356;2023-02-16T14:16:46;101670.72;;;12.07;57.24
45763;BME280;37512;52.408;13.356;2023-02-16T14:20:59;101681.59;;;12.12;58.31
45763;BME280;37512;52.408;13.356;2023-02-16T14:25:29;101672.63;;;11.91;59.72
45763;BME280;37512;52.408;13.356;2023-02-16T14:29:39;101665.63;;;12.38;57.49
45763;BME280;37512;52.408;13.356;2023-02-16T14:33:58;101670.56;;;12.16;58.58
45763;BME280;37512;52.408;13.356;2023-02-16T14:38:02;101669.78;;;12.44;59.13
45763;BME280;37512;52.408;13.356;2023-02-16T14:42:07;101673.06;;;12.62;58.18
45763;BME280;37512;52.408;13.356;2023-02-16T14:59:51;101663.13;;;11.43;61.33
45763;BME280;37512;52.408;13.356;2023-02-16T15:03:55;101671.22;;;11.23;62.52
45763;BME280;37512;52.408;13.356;2023-02-16T15:08:17;101671.09;;;10.95;65.20
45763;BME280;37512;52.408;13.356;2023-02-16T15:12:28;101666.66;;;10.82;66.96
45763;BME280;37512;52.408;13.356;2023-02-16T15:16:33;101665.78;;;11.64;64.85
45763;BME280;37512;52.408;13.356;2023-02-16T15:20:37;101657.53;;;11.67;64.06
45763;BME280;37512;52.408;13.356;2023-02-16T15:24:40;101665.91;;;11.30;64.95
45763;BME280;37512;52.408;13.356;2023-02-16T15:28:41;101665.91;;;11.43;65.39
45763;BME280;37512;52.408;13.356;2023-02-16T15:32:53;101670.06;;;11.12;66.71
45763;BME280;37512;52.408;13.356;2023-02-16T15:36:55;101667.06;;;10.72;68.03
45763;BME280;37512;52.408;13.356;2023-02-16T15:41:00;101661.47;;;10.93;68.39
45763;BME280;37512;52.408;13.356;2023-02-16T15:45:26;101659.22;;;10.74;70.13
45763;BME280;37512;52.408;13.356;2023-02-16T15:49:28;101655.22;;;10.50;71.99
45763;BME280;37512;52.408;13.356;2023-02-16T15:53:52;101651.13;;;10.68;71.76
45763;BME280;37512;52.408;13.356;2023-02-16T15:57:55;101647.63;;;10.59;71.88
45763;BME280;37512;52.408;13.356;2023-02-16T16:06:12;101638.97;;;10.40;73.18
45763;BME280;37512;52.408;13.356;2023-02-16T16:10:45;101632.31;;;10.53;72.93
45763;BME280;37512;52.408;13.356;2023-02-16T16:14:56;101628.56;;;10.37;73.21
45763;BME280;37512;52.408;13.356;2023-02-16T16:19:06;101626.09;;;10.02;77.06
45763;BME280;37512;52.408;13.356;2023-02-16T16:27:30;101627.00;;;9.64;77.58
45763;BME280;37512;52.408;13.356;2023-02-16T16:31:36;101627.53;;;9.57;79.50
45763;BME280;37512;52.408;13.356;2023-02-16T16:35:45;101627.31;;;9.41;80.10
45763;BME280;37512;52.408;13.356;2023-02-16T16:48:33;101615.94;;;9.34;79.82
45763;BME280;37512;52.408;13.356;2023-02-16T16:52:44;101612.94;;;9.69;78.77
45763;BME280;37512;52.408;13.356;2023-02-16T16:56:49;101602.97;;;9.56;79.35
45763;BME280;37512;52.408;13.356;2023-02-16T17:00:50;101605.69;;;9.35;81.34
45763;BME280;37512;52.408;13.356;2023-02-16T17:04:52;101593.22;;;9.50;81.49
45763;BME280;37512;52.408;13.356;2023-02-16T17:08:54;101603.38;;;9.37;81.16
45763;BME280;37512;52.408;13.356;2023-02-16T17:12:57;101604.03;;;8.66;88.88
45763;BME280;37512;52.408;13.356;2023-02-16T17:16:59;101608.59;;;8.70;89.39
45763;BME280;37512;52.408;13.356;2023-02-16T17:21:01;101593.31;;;9.03;89.49
45763;BME280;37512;52.408;13.356;2023-02-16T17:25:02;101605.34;;;8.59;92.79
45763;BME280;37512;52.408;13.356;2023-02-16T17:29:07;101608.66;;;8.44;93.26
45763;BME280;37512;52.408;13.356;2023-02-16T17:33:09;101615.44;;;8.64;93.96
45763;BME280;37512;52.408;13.356;2023-02-16T17:37:11;101607.78;;;8.61;93.05
45763;BME280;37512;52.408;13.356;2023-02-16T17:41:19;101610.03;;;8.76;90.83
45763;BME280;37512;52.408;13.356;2023-02-16T17:45:21;101612.34;;;8.57;92.71
45763;BME280;37512;52.408;13.356;2023-02-16T17:49:23;101609.09;;;8.64;92.31
45763;BME280;37512;52.408;13.356;2023-02-16T17:53:25;101619.25;;;8.42;93.63
45763;BME280;37512;52.408;13.356;2023-02-16T17:57:27;101624.09;;;8.28;94.51
45763;BME280;37512;52.408;13.356;2023-02-16T18:01:29;101626.38;;;8.43;93.05
45763;BME280;37512;52.408;13.356;2023-02-16T18:05:31;101623.22;;;8.71;91.28
45763;BME280;37512;52.408;13.356;2023-02-16T18:09:33;101626.88;;;8.45;92.54
45763;BME280;37512;52.408;13.356;2023-02-16T18:13:35;101622.78;;;8.34;92.17
45763;BME280;37512;52.408;13.356;2023-02-16T18:17:37;101620.53;;;8.27;93.23
45763;BME280;37512;52.408;13.356;2023-02-16T18:21:38;101619.25;;;8.42;93.83
45763;BME280;37512;52.408;13.356;2023-02-16T18:25:40;101619.72;;;8.09;94.41
45763;BME280;37512;52.408;13.356;2023-02-16T18:29:44;101613.88;;;8.20;93.63
45763;BME280;37512;52.408;13.356;2023-02-16T18:33:46;101620.22;;;8.29;92.76
45763;BME280;37512;52.408;13.356;2023-02-16T18:37:47;101622.16;;;8.20;93.16
45763;BME280;37512;52.408;13.356;2023-02-16T18:41:49;101624.09;;;8.36;92.51
45763;BME280;37512;52.408;13.356;2023-02-16T18:45:50;101623.44;;;8.48;90.39
45763;BME280;37512;52.408;13.356;2023-02-16T18:49:52;101620.88;;;8.26;91.90
45763;BME280;37512;52.408;13.356;2023-02-16T18:53:55;101613.88;;;8.02;93.41
45763;BME280;37512;52.408;13.356;2023-02-16T18:57:56;101610.75;;;8.30;91.75
45763;BME280;37512;52.408;13.356;2023-02-16T19:01:58;101607.19;;;8.29;91.79
45763;BME280;37512;52.408;13.356;2023-02-16T19:06:00;101610.44;;;8.23;91.98
45763;BME280;37512;52.408;13.356;2023-02-16T19:10:03;101614.69;;;8.29;92.31
45763;BME280;37512;52.408;13.356;2023-02-16T19:14:05;101609.50;;;8.10;94.56
45763;BME280;37512;52.408;13.356;2023-02-16T19:18:06;101608.69;;;7.92;96.03
45763;BME280;37512;52.408;13.356;2023-02-16T19:22:08;101601.38;;;7.96;96.09
45763;BME280;37512;52.408;13.356;2023-02-16T19:26:12;101600.69;;;7.82;97.92
45763;BME280;37512;52.408;13.356;2023-02-16T19:30:14;101611.91;;;8.03;98.28
45763;BME280;37512;52.408;13.356;2023-02-16T19:34:16;101611.44;;;7.83;97.03
45763;BME280;37512;52.408;13.356;2023-02-16T19:38:17;101613.03;;;8.28;95.30
45763;BME280;37512;52.408;13.356;2023-02-16T19:42:19;101613.56;;;7.95;96.92
45763;BME280;37512;52.408;13.356;2023-02-16T19:46:22;101616.16;;;7.83;98.42
45763;BME280;37512;52.408;13.356;2023-02-16T19:50:24;101605.25;;;7.78;97.17
45763;BME280;37512;52.408;13.356;2023-02-16T19:54:26;101606.41;;;7.94;97.00
45763;BME280;37512;52.408;13.356;2023-02-16T19:58:29;101604.28;;;7.82;98.53
45763;BME280;37512;52.408;13.356;2023-02-16T20:02:30;101597.44;;;7.80;97.56
45763;BME280;37512;52.408;13.356;2023-02-16T20:06:34;101596.66;;;7.88;98.02
45763;BME280;37512;52.408;13.356;2023-02-16T20:10:42;101601.84;;;7.98;98.05
45763;BME280;37512;52.408;13.356;2023-02-16T20:14:44;101608.50;;;7.97;97.27
45763;BME280;37512;52.408;13.356;2023-02-16T20:18:46;101602.97;;;7.88;97.36
45763;BME280;37512;52.408;13.356;2023-02-16T20:22:47;101603.13;;;7.66;99.45
45763;BME280;37512;52.408;13.356;2023-02-16T20:26:49;101595.03;;;7.87;99.16
45763;BME280;37512;52.408;13.356;2023-02-16T20:30:52;101593.53;;;7.98;99.61
45763;BME280;37512;52.408;13.356;2023-02-16T20:34:53;101588.84;;;7.72;100.00
45763;BME280;37512;52.408;13.356;2023-02-16T20:38:55;101589.50;;;7.87;99.66
45763;BME280;37512;52.408;13.356;2023-02-16T20:42:57;101582.34;;;7.94;100.00
45763;BME280;37512;52.408;13.356;2023-02-16T20:46:58;101589.47;;;7.61;100.00
45763;BME280;37512;52.408;13.356;2023-02-16T20:51:02;101586.19;;;7.32;100.00
45763;BME280;37512;52.408;13.356;2023-02-16T20:55:05;101581.84;;;7.49;100.00
45763;BME280;37512;52.408;13.356;2023-02-16T20:59:07;101581.50;;;7.59;100.00
45763;BME280;37512;52.408;13.356;2023-02-16T21:03:08;101580.66;;;7.32;100.00
45763;BME280;37512;52.408;13.356;2023-02-16T21:07:10;101572.91;;;7.69;100.00
45763;BME280;37512;52.408;13.356;2023-02-16T21:11:12;101574.69;;;7.74;100.00
45763;BME280;37512;52.408;13.356;2023-02-16T21:15:13;101578.09;;;7.53;100.00
45763;BME280;37512;52.408;13.356;2023-02-16T21:19:15;101560.69;;;7.36;100.00
45763;BME280;37512;52.408;13.356;2023-02-16T21:23:23;101555.50;;;7.25;100.00
45763;BME280;37512;52.408;13.356;2023-02-16T21:27:25;101557.09;;;7.26;100.00
45763;BME280;37512;52.408;13.356;2023-02-16T21:31:26;101554.03;;;7.28;100.00
45763;BME280;37512;52.408;13.356;2023-02-16T21:35:28;101553.22;;;7.36;100.00
45763;BME280;37512;52.408;13.356;2023-02-16T21:39:30;101553.06;;;7.32;100.00
45763;BME280;37512;52.408;13.356;2023-02-16T21:48:03;101544.13;;;7.44;100.00
45763;BME280;37512;52.408;13.356;2023-02-16T21:52:23;101538.34;;;6.97;100.00
45763;BME280;37512;52.408;13.356;2023-02-16T22:00:29;101528.44;;;6.87;100.00
45763;BME280;37512;52.408;13.356;2023-02-16T22:04:30;101514.81;;;7.00;100.00
45763;BME280;37512;52.408;13.356;2023-02-16T22:08:33;101520.19;;;7.13;100.00
45763;BME280;37512;52.408;13.356;2023-02-16T22:12:35;101509.94;;;6.97;100.00
45763;BME280;37512;52.408;13.356;2023-02-16T22:16:37;101519.53;;;6.99;100.00
45763;BME280;37512;52.408;13.356;2023-02-16T22:20:39;101514.69;;;7.22;100.00
45763;BME280;37512;52.408;13.356;2023-02-16T22:24:40;101509.00;;;7.80;100.00
45763;BME280;37512;52.408;13.356;2023-02-16T22:28:42;101510.16;;;7.26;100.00
45763;BME280;37512;52.408;13.356;2023-02-16T22:32:43;101504.63;;;7.26;100.00
45763;BME280;37512;52.408;13.356;2023-02-16T22:36:45;101495.03;;;7.15;100.00
45763;BME280;37512;52.408;13.356;2023-02-16T22:40:46;101494.75;;;7.25;100.00
45763;BME280;37512;52.408;13.356;2023-02-16T22:44:48;101495.53;;;7.26;100.00
45763;BME280;37512;52.408;13.356;2023-02-16T22:48:49;101494.09;;;7.37;100.00
45763;BME280;37512;52.408;13.356;2023-02-16T22:52:52;101502.38;;;7.46;100.00
45763;BME280;37512;52.408;13.356;2023-02-16T22:56:53;101494.25;;;7.49;100.00
45763;BME280;37512;52.408;13.356;2023-02-16T23:00:55;101498.16;;;7.48;100.00
45763;BME280;37512;52.408;13.356;2023-02-16T23:04:56;101495.34;;;7.13;100.00
45763;BME280;37512;52.408;13.356;2023-02-16T23:09:10;101496.69;;;7.16;100.00